الصفحة الرئيسية
METAR-TAF:

METAR-TAF

مطار :

ماراكايبو, فنزويلا

دائرة عرض: 10-34N, خط طول: 071-44W, ارتفاع: 66 متر

مراقبة الطقس الحالي

تاريخ ووقت الإصدار 17 دقيقة قبل الساعة 03:03UTC
ريح 4 عقدة من الشمال
درجة الحرارة 26°درجة مئوية
الرطوبة 100%
ضغط 1011 hPa

METAR: SVMC 250303Z AUTO 01004KT NCD 26/26 Q1011

زمن: 23:20 (03:20 UTC)

توقعات

تاريخ ووقت الإصدار 5ساعات و 20 دقيقة قبل الساعة 22:00UTC
التوقعات صالحة من25 الساعة 00 UTC إلى 26 الساعة 00 UTC
ريح 4 عقدة من الجنوب الغربي
الرؤية 10 كم أو أكثر
غيوم مفككة على ارتفاع 2000 قدم
مؤقت
من 25 الساعة 02 UTC إلى 25 الساعة 06 UTC
ريح 5 عقدة من الجنوب
الرؤية: 8000 متر
ملبد بالغيوم على ارتفاع 1300 قدم
عاصفة رعدية, مطر
من 25 الساعة 0700 UTC
ريح 6 عقدة من الشرق
الرؤية 10 كم أو أكثر
غيوم متفرقة على ارتفاع 1300 قدم
غيوم متفرقة على ارتفاع 6000 قدم

TAF: SVMC 242200Z 2500/2600 22004KT 9999 BKN020 TX34/2519Z TN25/2508Z TEMPO 2502/2506 18005KT 8000 TSRA OVC013 FM250700 08006KT 9999 SCT013 SCT060

أرصاد الطقس والتوقعات من أكثر من 4000 مطار (تقارير الطقس للمطار METAR والتنبؤ بالطقس بالمطارTAF).

المحطات المتاحة هي النقط الصفراء والحمراء على الخريطة.

حرك المؤشر فوق النقطة لمعرفة اسم المحطة.

ثم انقر لمعرفة أرصاد وتوقعات الطقس.

لتغيير الخارطة: اضغط على الأزرار الخضراء مع رمز الصليب الأسود للتكبير. على الزر الأخضر مع شرطة للتصغير، أو على الأسهم الخضراء للخرائط المجاورة.


METAR-TAF: